sensor_id;sensor_type;location;lat;lon;timestamp;P1;durP1;ratioP1;P2;durP2;ratioP2
19396;SDS011;9834;48.076;11.878;2024-03-02T04:03:19;10.57;;;6.90;;
19396;SDS011;9834;48.076;11.878;2024-03-02T04:05:47;9.13;;;6.70;;
19396;SDS011;9834;48.076;11.878;2024-03-02T04:08:20;11.43;;;7.90;;
19396;SDS011;9834;48.076;11.878;2024-03-02T04:10:51;13.83;;;8.67;;
19396;SDS011;9834;48.076;11.878;2024-03-02T04:13:20;10.00;;;7.50;;
19396;SDS011;9834;48.076;11.878;2024-03-02T04:15:47;11.40;;;7.83;;
19396;SDS011;9834;48.076;11.878;2024-03-02T04:18:26;10.80;;;7.93;;
19396;SDS011;9834;48.076;11.878;2024-03-02T04:20:53;13.47;;;8.20;;
19396;SDS011;9834;48.076;11.878;2024-03-02T04:23:21;11.13;;;7.17;;
19396;SDS011;9834;48.076;11.878;2024-03-02T04:25:51;12.57;;;8.07;;
19396;SDS011;9834;48.076;11.878;2024-03-02T04:28:33;10.33;;;7.33;;
19396;SDS011;9834;48.076;11.878;2024-03-02T04:31:00;12.57;;;7.53;;
19396;SDS011;9834;48.076;11.878;2024-03-02T04:33:31;13.60;;;8.53;;
19396;SDS011;9834;48.076;11.878;2024-03-02T04:35:59;15.30;;;9.13;;
19396;SDS011;9834;48.076;11.878;2024-03-02T04:38:40;14.83;;;8.87;;
19396;SDS011;9834;48.076;11.878;2024-03-02T04:41:10;9.70;;;7.37;;
19396;SDS011;9834;48.076;11.878;2024-03-02T04:43:54;14.60;;;8.87;;
19396;SDS011;9834;48.076;11.878;2024-03-02T04:46:24;13.57;;;8.67;;
19396;SDS011;9834;48.076;11.878;2024-03-02T04:48:56;21.73;;;9.83;;
19396;SDS011;9834;48.076;11.878;2024-03-02T04:51:29;15.17;;;9.53;;
19396;SDS011;9834;48.076;11.878;2024-03-02T04:54:00;18.93;;;9.60;;
19396;SDS011;9834;48.076;11.878;2024-03-02T04:56:35;12.63;;;7.63;;
19396;SDS011;9834;48.076;11.878;2024-03-02T04:59:14;12.37;;;7.53;;
19396;SDS011;9834;48.076;11.878;2024-03-02T05:01:45;11.87;;;7.93;;
19396;SDS011;9834;48.076;11.878;2024-03-02T05:04:24;12.57;;;8.23;;
19396;SDS011;9834;48.076;11.878;2024-03-02T05:06:54;16.63;;;9.30;;
19396;SDS011;9834;48.076;11.878;2024-03-02T05:09:27;17.10;;;9.40;;
19396;SDS011;9834;48.076;11.878;2024-03-02T05:11:55;13.10;;;9.23;;
19396;SDS011;9834;48.076;11.878;2024-03-02T05:14:40;14.43;;;9.10;;
19396;SDS011;9834;48.076;11.878;2024-03-02T05:17:08;13.40;;;9.17;;
19396;SDS011;9834;48.076;11.878;2024-03-02T05:19:37;14.43;;;8.40;;
19396;SDS011;9834;48.076;11.878;2024-03-02T05:22:04;17.90;;;10.10;;
19396;SDS011;9834;48.076;11.878;2024-03-02T05:24:32;14.97;;;9.23;;
19396;SDS011;9834;48.076;11.878;2024-03-02T05:26:59;19.00;;;11.70;;
19396;SDS011;9834;48.076;11.878;2024-03-02T05:29:32;28.33;;;11.67;;
19396;SDS011;9834;48.076;11.878;2024-03-02T05:32:07;19.23;;;10.77;;
19396;SDS011;9834;48.076;11.878;2024-03-02T05:34:36;15.40;;;9.50;;
19396;SDS011;9834;48.076;11.878;2024-03-02T05:37:04;16.50;;;10.03;;
19396;SDS011;9834;48.076;11.878;2024-03-02T05:39:32;17.33;;;10.37;;
19396;SDS011;9834;48.076;11.878;2024-03-02T05:41:59;18.43;;;11.13;;
19396;SDS011;9834;48.076;11.878;2024-03-02T05:44:36;15.00;;;9.50;;
19396;SDS011;9834;48.076;11.878;2024-03-02T05:47:08;15.23;;;10.03;;
19396;SDS011;9834;48.076;11.878;2024-03-02T05:49:37;19.80;;;10.23;;
19396;SDS011;9834;48.076;11.878;2024-03-02T05:52:08;17.87;;;10.20;;
19396;SDS011;9834;48.076;11.878;2024-03-02T05:54:41;12.83;;;8.20;;
19396;SDS011;9834;48.076;11.878;2024-03-02T05:57:08;16.47;;;9.23;;
19396;SDS011;9834;48.076;11.878;2024-03-02T05:59:59;14.93;;;8.93;;
19396;SDS011;9834;48.076;11.878;2024-03-02T06:02:34;14.33;;;8.40;;
19396;SDS011;9834;48.076;11.878;2024-03-02T06:05:03;14.27;;;7.77;;
19396;SDS011;9834;48.076;11.878;2024-03-02T06:07:30;15.63;;;8.13;;
19396;SDS011;9834;48.076;11.878;2024-03-02T06:10:00;16.53;;;9.93;;
19396;SDS011;9834;48.076;11.878;2024-03-02T06:12:27;13.17;;;8.63;;
19396;SDS011;9834;48.076;11.878;2024-03-02T06:14:54;11.90;;;8.13;;
19396;SDS011;9834;48.076;11.878;2024-03-02T06:17:21;11.77;;;8.83;;
19396;SDS011;9834;48.076;11.878;2024-03-02T06:19:48;15.17;;;8.60;;
19396;SDS011;9834;48.076;11.878;2024-03-02T06:22:18;11.83;;;7.93;;
19396;SDS011;9834;48.076;11.878;2024-03-02T06:24:46;12.83;;;7.97;;
19396;SDS011;9834;48.076;11.878;2024-03-02T06:27:15;11.33;;;7.93;;
19396;SDS011;9834;48.076;11.878;2024-03-02T06:29:50;20.10;;;9.43;;
19396;SDS011;9834;48.076;11.878;2024-03-02T06:32:17;14.20;;;9.30;;
19396;SDS011;9834;48.076;11.878;2024-03-02T06:34:50;13.50;;;8.87;;
19396;SDS011;9834;48.076;11.878;2024-03-02T06:37:22;17.93;;;8.93;;
19396;SDS011;9834;48.076;11.878;2024-03-02T06:39:58;16.70;;;9.10;;
19396;SDS011;9834;48.076;11.878;2024-03-02T06:42:32;13.73;;;8.60;;
19396;SDS011;9834;48.076;11.878;2024-03-02T06:45:03;15.10;;;9.77;;
19396;SDS011;9834;48.076;11.878;2024-03-02T06:47:31;13.57;;;9.37;;
19396;SDS011;9834;48.076;11.878;2024-03-02T06:50:00;16.73;;;10.03;;
19396;SDS011;9834;48.076;11.878;2024-03-02T06:52:29;13.87;;;8.33;;
19396;SDS011;9834;48.076;11.878;2024-03-02T06:54:59;15.00;;;9.10;;
19396;SDS011;9834;48.076;11.878;2024-03-02T06:57:26;13.90;;;9.37;;
19396;SDS011;9834;48.076;11.878;2024-03-02T06:59:54;15.47;;;9.70;;
19396;SDS011;9834;48.076;11.878;2024-03-02T07:02:36;19.33;;;9.73;;
19396;SDS011;9834;48.076;11.878;2024-03-02T07:05:07;17.30;;;10.73;;
19396;SDS011;9834;48.076;11.878;2024-03-02T07:07:43;16.87;;;9.47;;
19396;SDS011;9834;48.076;11.878;2024-03-02T07:10:11;16.03;;;10.23;;
19396;SDS011;9834;48.076;11.878;2024-03-02T07:12:38;17.17;;;10.67;;
19396;SDS011;9834;48.076;11.878;2024-03-02T07:15:14;14.83;;;10.37;;
19396;SDS011;9834;48.076;11.878;2024-03-02T07:18:04;23.63;;;11.70;;
19396;SDS011;9834;48.076;11.878;2024-03-02T07:20:34;23.00;;;13.20;;
19396;SDS011;9834;48.076;11.878;2024-03-02T07:23:05;20.87;;;12.70;;
19396;SDS011;9834;48.076;11.878;2024-03-02T07:25:34;24.20;;;13.17;;
19396;SDS011;9834;48.076;11.878;2024-03-02T07:28:01;22.17;;;13.67;;
19396;SDS011;9834;48.076;11.878;2024-03-02T07:30:30;18.97;;;11.40;;
19396;SDS011;9834;48.076;11.878;2024-03-02T07:32:57;24.00;;;12.43;;
19396;SDS011;9834;48.076;11.878;2024-03-02T07:35:25;18.93;;;11.67;;
19396;SDS011;9834;48.076;11.878;2024-03-02T07:38:00;15.27;;;10.40;;
19396;SDS011;9834;48.076;11.878;2024-03-02T07:43:11;20.33;;;12.03;;
19396;SDS011;9834;48.076;11.878;2024-03-02T07:45:41;27.30;;;14.50;;
19396;SDS011;9834;48.076;11.878;2024-03-02T07:48:16;21.67;;;12.33;;
19396;SDS011;9834;48.076;11.878;2024-03-02T07:50:44;23.47;;;12.27;;
19396;SDS011;9834;48.076;11.878;2024-03-02T07:53:19;22.47;;;13.07;;
19396;SDS011;9834;48.076;11.878;2024-03-02T07:55:48;24.83;;;13.03;;
19396;SDS011;9834;48.076;11.878;2024-03-02T07:58:16;24.40;;;13.93;;
19396;SDS011;9834;48.076;11.878;2024-03-02T08:00:49;22.83;;;13.03;;
19396;SDS011;9834;48.076;11.878;2024-03-02T08:03:17;23.33;;;14.23;;
19396;SDS011;9834;48.076;11.878;2024-03-02T08:05:48;26.83;;;13.70;;
19396;SDS011;9834;48.076;11.878;2024-03-02T08:08:24;24.67;;;14.83;;
19396;SDS011;9834;48.076;11.878;2024-03-02T08:10:53;24.37;;;13.53;;
19396;SDS011;9834;48.076;11.878;2024-03-02T08:13:20;24.33;;;13.87;;
19396;SDS011;9834;48.076;11.878;2024-03-02T08:15:48;21.27;;;13.63;;
19396;SDS011;9834;48.076;11.878;2024-03-02T08:18:18;24.43;;;13.53;;
19396;SDS011;9834;48.076;11.878;2024-03-02T08:20:49;24.33;;;13.93;;
19396;SDS011;9834;48.076;11.878;2024-03-02T08:23:16;20.93;;;12.00;;
19396;SDS011;9834;48.076;11.878;2024-03-02T08:25:45;29.00;;;14.40;;
19396;SDS011;9834;48.076;11.878;2024-03-02T08:28:20;21.53;;;12.83;;
19396;SDS011;9834;48.076;11.878;2024-03-02T08:30:48;21.67;;;12.13;;
19396;SDS011;9834;48.076;11.878;2024-03-02T08:33:18;20.50;;;12.63;;
19396;SDS011;9834;48.076;11.878;2024-03-02T08:35:45;22.47;;;12.33;;
19396;SDS011;9834;48.076;11.878;2024-03-02T08:38:13;27.10;;;14.00;;
19396;SDS011;9834;48.076;11.878;2024-03-02T08:40:46;20.80;;;10.90;;
19396;SDS011;9834;48.076;11.878;2024-03-02T08:43:14;20.50;;;11.30;;
19396;SDS011;9834;48.076;11.878;2024-03-02T08:45:43;18.17;;;11.97;;
19396;SDS011;9834;48.076;11.878;2024-03-02T08:48:12;20.90;;;11.33;;
19396;SDS011;9834;48.076;11.878;2024-03-02T08:50:40;20.20;;;11.57;;
19396;SDS011;9834;48.076;11.878;2024-03-02T08:53:10;19.57;;;11.33;;
19396;SDS011;9834;48.076;11.878;2024-03-02T08:55:37;22.73;;;12.43;;
19396;SDS011;9834;48.076;11.878;2024-03-02T08:58:05;23.37;;;12.60;;
19396;SDS011;9834;48.076;11.878;2024-03-02T09:00:33;18.27;;;11.07;;
19396;SDS011;9834;48.076;11.878;2024-03-02T09:03:02;17.40;;;11.13;;
19396;SDS011;9834;48.076;11.878;2024-03-02T09:05:40;17.03;;;10.43;;
19396;SDS011;9834;48.076;11.878;2024-03-02T09:08:08;16.87;;;9.63;;
19396;SDS011;9834;48.076;11.878;2024-03-02T09:10:41;25.17;;;11.57;;
19396;SDS011;9834;48.076;11.878;2024-03-02T09:13:19;18.43;;;10.80;;
19396;SDS011;9834;48.076;11.878;2024-03-02T09:15:47;23.03;;;11.60;;
19396;SDS011;9834;48.076;11.878;2024-03-02T09:18:18;21.17;;;12.17;;
19396;SDS011;9834;48.076;11.878;2024-03-02T09:20:45;22.03;;;11.70;;
19396;SDS011;9834;48.076;11.878;2024-03-02T09:23:16;17.07;;;10.63;;
19396;SDS011;9834;48.076;11.878;2024-03-02T09:25:46;17.37;;;10.23;;
19396;SDS011;9834;48.076;11.878;2024-03-02T09:28:15;22.57;;;11.97;;
19396;SDS011;9834;48.076;11.878;2024-03-02T09:30:49;18.60;;;11.30;;
19396;SDS011;9834;48.076;11.878;2024-03-02T09:33:19;21.47;;;12.10;;
19396;SDS011;9834;48.076;11.878;2024-03-02T09:35:47;27.87;;;12.27;;
19396;SDS011;9834;48.076;11.878;2024-03-02T09:38:19;26.60;;;12.57;;
19396;SDS011;9834;48.076;11.878;2024-03-02T09:40:53;21.50;;;12.20;;
19396;SDS011;9834;48.076;11.878;2024-03-02T09:43:23;18.00;;;10.97;;
19396;SDS011;9834;48.076;11.878;2024-03-02T09:45:51;24.17;;;11.53;;
19396;SDS011;9834;48.076;11.878;2024-03-02T09:48:22;21.10;;;11.50;;
19396;SDS011;9834;48.076;11.878;2024-03-02T09:50:49;21.17;;;12.07;;
19396;SDS011;9834;48.076;11.878;2024-03-02T09:53:20;22.13;;;11.13;;
19396;SDS011;9834;48.076;11.878;2024-03-02T09:55:48;24.73;;;12.43;;
19396;SDS011;9834;48.076;11.878;2024-03-02T09:58:16;21.13;;;11.67;;
19396;SDS011;9834;48.076;11.878;2024-03-02T10:00:43;18.70;;;10.53;;
19396;SDS011;9834;48.076;11.878;2024-03-02T10:03:11;14.93;;;10.07;;
19396;SDS011;9834;48.076;11.878;2024-03-02T10:05:40;18.60;;;10.93;;
19396;SDS011;9834;48.076;11.878;2024-03-02T10:08:09;17.87;;;10.00;;
19396;SDS011;9834;48.076;11.878;2024-03-02T10:10:38;17.77;;;9.70;;
19396;SDS011;9834;48.076;11.878;2024-03-02T10:13:08;16.07;;;9.80;;
19396;SDS011;9834;48.076;11.878;2024-03-02T10:15:39;17.87;;;8.90;;
19396;SDS011;9834;48.076;11.878;2024-03-02T10:18:10;16.87;;;9.30;;
19396;SDS011;9834;48.076;11.878;2024-03-02T10:20:40;14.17;;;8.97;;
19396;SDS011;9834;48.076;11.878;2024-03-02T10:23:11;16.23;;;9.27;;
19396;SDS011;9834;48.076;11.878;2024-03-02T10:25:40;13.77;;;8.33;;
19396;SDS011;9834;48.076;11.878;2024-03-02T10:28:09;14.67;;;8.67;;
19396;SDS011;9834;48.076;11.878;2024-03-02T10:30:41;14.87;;;8.80;;
19396;SDS011;9834;48.076;11.878;2024-03-02T10:33:08;17.33;;;9.43;;
19396;SDS011;9834;48.076;11.878;2024-03-02T10:35:38;13.70;;;9.00;;
19396;SDS011;9834;48.076;11.878;2024-03-02T10:38:08;19.63;;;8.93;;
19396;SDS011;9834;48.076;11.878;2024-03-02T10:40:41;13.70;;;8.70;;
19396;SDS011;9834;48.076;11.878;2024-03-02T10:43:15;12.77;;;8.53;;
19396;SDS011;9834;48.076;11.878;2024-03-02T10:45:51;14.10;;;8.50;;
19396;SDS011;9834;48.076;11.878;2024-03-02T10:48:20;12.37;;;7.77;;
19396;SDS011;9834;48.076;11.878;2024-03-02T10:50:53;13.43;;;8.37;;
19396;SDS011;9834;48.076;11.878;2024-03-02T10:53:26;12.37;;;7.60;;
19396;SDS011;9834;48.076;11.878;2024-03-02T10:55:55;14.17;;;8.60;;
19396;SDS011;9834;48.076;11.878;2024-03-02T10:58:27;16.70;;;9.40;;
19396;SDS011;9834;48.076;11.878;2024-03-02T11:01:12;17.73;;;9.13;;
19396;SDS011;9834;48.076;11.878;2024-03-02T11:03:40;12.00;;;7.73;;
19396;SDS011;9834;48.076;11.878;2024-03-02T11:06:11;15.17;;;8.07;;
19396;SDS011;9834;48.076;11.878;2024-03-02T11:08:43;14.90;;;8.67;;
19396;SDS011;9834;48.076;11.878;2024-03-02T11:11:14;14.43;;;9.03;;
19396;SDS011;9834;48.076;11.878;2024-03-02T11:13:46;13.57;;;9.10;;
19396;SDS011;9834;48.076;11.878;2024-03-02T11:16:32;13.10;;;8.00;;
19396;SDS011;9834;48.076;11.878;2024-03-02T11:19:01;14.23;;;7.40;;
19396;SDS011;9834;48.076;11.878;2024-03-02T11:21:33;12.03;;;7.50;;
19396;SDS011;9834;48.076;11.878;2024-03-02T11:24:08;10.17;;;6.90;;
19396;SDS011;9834;48.076;11.878;2024-03-02T11:26:58;13.73;;;7.00;;
19396;SDS011;9834;48.076;11.878;2024-03-02T11:32:28;10.63;;;6.60;;
19396;SDS011;9834;48.076;11.878;2024-03-02T11:34:58;13.70;;;6.37;;
19396;SDS011;9834;48.076;11.878;2024-03-02T11:37:33;8.50;;;5.47;;
19396;SDS011;9834;48.076;11.878;2024-03-02T11:40:01;10.93;;;6.27;;
19396;SDS011;9834;48.076;11.878;2024-03-02T11:42:29;10.07;;;6.53;;
19396;SDS011;9834;48.076;11.878;2024-03-02T11:44:57;13.60;;;5.60;;
19396;SDS011;9834;48.076;11.878;2024-03-02T11:47:31;9.00;;;6.07;;
19396;SDS011;9834;48.076;11.878;2024-03-02T11:50:03;9.20;;;6.77;;
19396;SDS011;9834;48.076;11.878;2024-03-02T11:52:46;10.33;;;6.23;;
19396;SDS011;9834;48.076;11.878;2024-03-02T11:55:16;12.67;;;5.87;;
19396;SDS011;9834;48.076;11.878;2024-03-02T11:57:46;8.37;;;6.27;;
19396;SDS011;9834;48.076;11.878;2024-03-02T12:00:16;9.30;;;5.90;;
19396;SDS011;9834;48.076;11.878;2024-03-02T12:02:44;6.27;;;5.63;;
19396;SDS011;9834;48.076;11.878;2024-03-02T12:05:17;12.33;;;8.10;;
19396;SDS011;9834;48.076;11.878;2024-03-02T12:07:49;7.73;;;5.80;;
19396;SDS011;9834;48.076;11.878;2024-03-02T12:10:23;7.47;;;6.47;;
19396;SDS011;9834;48.076;11.878;2024-03-02T12:12:56;10.23;;;6.20;;
19396;SDS011;9834;48.076;11.878;2024-03-02T12:15:25;7.83;;;5.80;;
19396;SDS011;9834;48.076;11.878;2024-03-02T12:17:54;10.30;;;5.87;;
19396;SDS011;9834;48.076;11.878;2024-03-02T12:20:26;8.23;;;5.93;;
19396;SDS011;9834;48.076;11.878;2024-03-02T12:22:57;11.97;;;6.63;;
19396;SDS011;9834;48.076;11.878;2024-03-02T12:25:26;9.40;;;6.07;;
19396;SDS011;9834;48.076;11.878;2024-03-02T12:27:54;11.60;;;6.43;;
19396;SDS011;9834;48.076;11.878;2024-03-02T12:30:23;10.47;;;6.80;;
19396;SDS011;9834;48.076;11.878;2024-03-02T12:32:51;12.83;;;8.07;;
19396;SDS011;9834;48.076;11.878;2024-03-02T12:35:19;10.70;;;6.70;;
19396;SDS011;9834;48.076;11.878;2024-03-02T12:37:53;13.80;;;6.97;;
19396;SDS011;9834;48.076;11.878;2024-03-02T12:40:23;14.57;;;7.38;;
19396;SDS011;9834;48.076;11.878;2024-03-02T12:42:52;10.60;;;7.33;;
19396;SDS011;9834;48.076;11.878;2024-03-02T12:45:20;13.88;;;8.38;;
19396;SDS011;9834;48.076;11.878;2024-03-02T12:47:50;13.48;;;7.70;;
19396;SDS011;9834;48.076;11.878;2024-03-02T12:50:28;12.10;;;7.25;;
19396;SDS011;9834;48.076;11.878;2024-03-02T12:53:03;12.13;;;7.50;;
19396;SDS011;9834;48.076;11.878;2024-03-02T12:55:35;12.00;;;7.70;;
19396;SDS011;9834;48.076;11.878;2024-03-02T12:58:05;12.10;;;8.10;;
19396;SDS011;9834;48.076;11.878;2024-03-02T13:00:32;15.20;;;8.32;;
19396;SDS011;9834;48.076;11.878;2024-03-02T13:03:00;12.80;;;9.27;;
19396;SDS011;9834;48.076;11.878;2024-03-02T13:05:32;19.58;;;9.70;;
19396;SDS011;9834;48.076;11.878;2024-03-02T13:08:06;18.08;;;9.20;;
19396;SDS011;9834;48.076;11.878;2024-03-02T13:10:34;14.55;;;9.20;;
19396;SDS011;9834;48.076;11.878;2024-03-02T13:13:02;10.70;;;8.88;;
19396;SDS011;9834;48.076;11.878;2024-03-02T13:15:32;14.55;;;7.88;;
19396;SDS011;9834;48.076;11.878;2024-03-02T13:18:08;10.18;;;7.15;;
19396;SDS011;9834;48.076;11.878;2024-03-02T13:20:41;10.35;;;7.35;;
19396;SDS011;9834;48.076;11.878;2024-03-02T13:23:10;14.00;;;8.45;;
19396;SDS011;9834;48.076;11.878;2024-03-02T13:25:37;14.77;;;7.60;;
19396;SDS011;9834;48.076;11.878;2024-03-02T13:28:05;11.50;;;7.85;;
19396;SDS011;9834;48.076;11.878;2024-03-02T13:30:37;14.77;;;8.75;;
19396;SDS011;9834;48.076;11.878;2024-03-02T13:33:10;10.82;;;7.47;;
19396;SDS011;9834;48.076;11.878;2024-03-02T13:35:47;15.68;;;8.55;;
19396;SDS011;9834;48.076;11.878;2024-03-02T13:38:20;14.13;;;8.95;;
19396;SDS011;9834;48.076;11.878;2024-03-02T13:40:50;10.48;;;7.68;;
19396;SDS011;9834;48.076;11.878;2024-03-02T13:43:20;9.38;;;7.63;;
19396;SDS011;9834;48.076;11.878;2024-03-02T13:45:49;10.70;;;7.90;;
19396;SDS011;9834;48.076;11.878;2024-03-02T13:48:19;13.10;;;7.82;;
19396;SDS011;9834;48.076;11.878;2024-03-02T13:50:48;10.20;;;6.88;;
19396;SDS011;9834;48.076;11.878;2024-03-02T13:53:16;9.82;;;7.20;;
19396;SDS011;9834;48.076;11.878;2024-03-02T13:55:53;9.07;;;6.43;;
19396;SDS011;9834;48.076;11.878;2024-03-02T13:58:21;11.77;;;7.03;;
19396;SDS011;9834;48.076;11.878;2024-03-02T14:00:48;9.82;;;7.57;;
19396;SDS011;9834;48.076;11.878;2024-03-02T14:03:18;15.18;;;7.18;;
19396;SDS011;9834;48.076;11.878;2024-03-02T14:05:50;10.00;;;7.03;;
19396;SDS011;9834;48.076;11.878;2024-03-02T14:08:18;10.55;;;6.85;;
19396;SDS011;9834;48.076;11.878;2024-03-02T14:10:45;7.45;;;5.93;;
19396;SDS011;9834;48.076;11.878;2024-03-02T14:13:14;11.45;;;7.13;;
19396;SDS011;9834;48.076;11.878;2024-03-02T14:15:42;8.57;;;6.78;;
19396;SDS011;9834;48.076;11.878;2024-03-02T14:18:12;14.38;;;7.07;;
19396;SDS011;9834;48.076;11.878;2024-03-02T14:20:41;10.20;;;6.60;;
19396;SDS011;9834;48.076;11.878;2024-03-02T14:23:09;10.07;;;7.00;;
19396;SDS011;9834;48.076;11.878;2024-03-02T14:25:36;9.70;;;7.10;;
19396;SDS011;9834;48.076;11.878;2024-03-02T14:28:07;10.18;;;7.82;;
19396;SDS011;9834;48.076;11.878;2024-03-02T14:30:39;9.57;;;6.80;;
19396;SDS011;9834;48.076;11.878;2024-03-02T14:33:08;9.85;;;7.10;;
19396;SDS011;9834;48.076;11.878;2024-03-02T14:35:39;8.60;;;6.90;;
19396;SDS011;9834;48.076;11.878;2024-03-02T14:38:07;8.02;;;6.50;;
19396;SDS011;9834;48.076;11.878;2024-03-02T14:40:42;12.45;;;7.00;;
19396;SDS011;9834;48.076;11.878;2024-03-02T14:43:10;8.48;;;6.82;;
19396;SDS011;9834;48.076;11.878;2024-03-02T14:45:43;11.50;;;8.75;;
19396;SDS011;9834;48.076;11.878;2024-03-02T14:48:11;12.07;;;8.93;;
19396;SDS011;9834;48.076;11.878;2024-03-02T14:50:39;12.45;;;6.55;;
19396;SDS011;9834;48.076;11.878;2024-03-02T14:53:14;12.60;;;7.65;;
19396;SDS011;9834;48.076;11.878;2024-03-02T14:55:48;13.23;;;7.78;;
19396;SDS011;9834;48.076;11.878;2024-03-02T14:58:16;10.65;;;7.68;;
19396;SDS011;9834;48.076;11.878;2024-03-02T15:00:58;13.50;;;8.45;;
19396;SDS011;9834;48.076;11.878;2024-03-02T15:03:26;10.80;;;7.82;;
19396;SDS011;9834;48.076;11.878;2024-03-02T15:05:56;16.13;;;8.75;;
19396;SDS011;9834;48.076;11.878;2024-03-02T15:08:24;13.43;;;8.82;;
19396;SDS011;9834;48.076;11.878;2024-03-02T15:10:51;13.75;;;8.88;;
19396;SDS011;9834;48.076;11.878;2024-03-02T15:13:21;14.80;;;8.82;;
19396;SDS011;9834;48.076;11.878;2024-03-02T15:15:48;13.75;;;8.48;;
19396;SDS011;9834;48.076;11.878;2024-03-02T15:18:20;12.20;;;8.93;;
19396;SDS011;9834;48.076;11.878;2024-03-02T15:20:49;12.30;;;7.68;;
19396;SDS011;9834;48.076;11.878;2024-03-02T15:23:22;12.45;;;7.65;;
19396;SDS011;9834;48.076;11.878;2024-03-02T15:25:50;11.25;;;7.88;;
19396;SDS011;9834;48.076;11.878;2024-03-02T15:28:24;13.48;;;8.48;;
19396;SDS011;9834;48.076;11.878;2024-03-02T15:31:00;11.88;;;8.05;;
19396;SDS011;9834;48.076;11.878;2024-03-02T15:33:31;16.60;;;8.05;;
19396;SDS011;9834;48.076;11.878;2024-03-02T15:35:58;12.52;;;7.93;;
19396;SDS011;9834;48.076;11.878;2024-03-02T15:38:26;12.07;;;7.90;;
19396;SDS011;9834;48.076;11.878;2024-03-02T15:40:54;8.95;;;7.00;;
19396;SDS011;9834;48.076;11.878;2024-03-02T15:43:21;14.80;;;8.10;;
19396;SDS011;9834;48.076;11.878;2024-03-02T15:45:49;13.05;;;8.45;;
19396;SDS011;9834;48.076;11.878;2024-03-02T15:48:19;9.13;;;7.45;;
19396;SDS011;9834;48.076;11.878;2024-03-02T15:50:50;12.10;;;7.78;;
19396;SDS011;9834;48.076;11.878;2024-03-02T15:53:20;11.50;;;8.23;;
19396;SDS011;9834;48.076;11.878;2024-03-02T15:55:48;11.73;;;8.60;;
19396;SDS011;9834;48.076;11.878;2024-03-02T15:58:19;16.27;;;8.83;;
19396;SDS011;9834;48.076;11.878;2024-03-02T16:00:46;12.73;;;8.40;;
19396;SDS011;9834;48.076;11.878;2024-03-02T16:03:14;15.47;;;9.37;;
19396;SDS011;9834;48.076;11.878;2024-03-02T16:05:41;18.10;;;9.37;;
19396;SDS011;9834;48.076;11.878;2024-03-02T16:08:09;19.50;;;10.73;;
19396;SDS011;9834;48.076;11.878;2024-03-02T16:10:39;15.77;;;9.30;;
19396;SDS011;9834;48.076;11.878;2024-03-02T16:13:09;19.67;;;9.47;;
19396;SDS011;9834;48.076;11.878;2024-03-02T16:15:37;12.63;;;10.03;;
19396;SDS011;9834;48.076;11.878;2024-03-02T16:18:05;17.60;;;9.90;;
19396;SDS011;9834;48.076;11.878;2024-03-02T16:20:35;18.83;;;10.10;;
19396;SDS011;9834;48.076;11.878;2024-03-02T16:23:06;18.07;;;10.60;;
19396;SDS011;9834;48.076;11.878;2024-03-02T16:25:35;20.17;;;10.00;;
19396;SDS011;9834;48.076;11.878;2024-03-02T16:28:02;20.93;;;10.17;;
19396;SDS011;9834;48.076;11.878;2024-03-02T16:30:30;17.33;;;10.87;;
19396;SDS011;9834;48.076;11.878;2024-03-02T16:33:00;20.07;;;11.23;;
19396;SDS011;9834;48.076;11.878;2024-03-02T16:35:28;23.10;;;10.57;;
19396;SDS011;9834;48.076;11.878;2024-03-02T16:37:55;20.33;;;10.67;;
19396;SDS011;9834;48.076;11.878;2024-03-02T16:40:26;15.93;;;9.70;;
19396;SDS011;9834;48.076;11.878;2024-03-02T16:42:56;27.90;;;12.17;;
19396;SDS011;9834;48.076;11.878;2024-03-02T16:45:30;21.47;;;10.70;;
19396;SDS011;9834;48.076;11.878;2024-03-02T16:47:59;18.33;;;10.33;;
19396;SDS011;9834;48.076;11.878;2024-03-02T16:50:27;15.93;;;10.60;;
19396;SDS011;9834;48.076;11.878;2024-03-02T16:53:01;15.20;;;10.47;;
19396;SDS011;9834;48.076;11.878;2024-03-02T16:58:17;20.77;;;11.87;;
19396;SDS011;9834;48.076;11.878;2024-03-02T17:00:47;21.47;;;11.00;;
19396;SDS011;9834;48.076;11.878;2024-03-02T17:03:15;25.03;;;11.27;;
19396;SDS011;9834;48.076;11.878;2024-03-02T17:05:43;24.07;;;11.57;;
19396;SDS011;9834;48.076;11.878;2024-03-02T17:08:11;21.13;;;11.50;;
19396;SDS011;9834;48.076;11.878;2024-03-02T17:10:41;25.07;;;10.90;;
19396;SDS011;9834;48.076;11.878;2024-03-02T17:13:13;18.00;;;10.20;;
19396;SDS011;9834;48.076;11.878;2024-03-02T17:15:45;21.20;;;11.27;;
19396;SDS011;9834;48.076;11.878;2024-03-02T17:18:12;20.73;;;10.93;;
19396;SDS011;9834;48.076;11.878;2024-03-02T17:20:43;22.63;;;10.80;;
19396;SDS011;9834;48.076;11.878;2024-03-02T17:23:12;18.03;;;11.23;;
19396;SDS011;9834;48.076;11.878;2024-03-02T17:25:43;20.77;;;11.07;;
19396;SDS011;9834;48.076;11.878;2024-03-02T17:28:22;23.27;;;11.90;;
19396;SDS011;9834;48.076;11.878;2024-03-02T17:30:50;26.80;;;13.47;;
19396;SDS011;9834;48.076;11.878;2024-03-02T17:33:18;26.40;;;13.03;;
19396;SDS011;9834;48.076;11.878;2024-03-02T17:35:46;28.50;;;12.97;;
19396;SDS011;9834;48.076;11.878;2024-03-02T17:38:15;21.33;;;10.97;;
19396;SDS011;9834;48.076;11.878;2024-03-02T17:40:42;22.50;;;12.00;;
19396;SDS011;9834;48.076;11.878;2024-03-02T17:43:17;23.53;;;11.83;;
19396;SDS011;9834;48.076;11.878;2024-03-02T17:45:46;22.83;;;12.90;;
19396;SDS011;9834;48.076;11.878;2024-03-02T17:48:14;24.83;;;12.97;;
19396;SDS011;9834;48.076;11.878;2024-03-02T17:50:47;26.87;;;13.27;;
19396;SDS011;9834;48.076;11.878;2024-03-02T17:53:16;29.67;;;13.47;;
19396;SDS011;9834;48.076;11.878;2024-03-02T17:55:44;31.67;;;15.33;;
19396;SDS011;9834;48.076;11.878;2024-03-02T17:58:24;33.33;;;17.13;;
19396;SDS011;9834;48.076;11.878;2024-03-02T18:00:53;24.53;;;13.90;;
19396;SDS011;9834;48.076;11.878;2024-03-02T18:03:20;24.87;;;14.17;;
19396;SDS011;9834;48.076;11.878;2024-03-02T18:05:50;27.00;;;14.43;;
19396;SDS011;9834;48.076;11.878;2024-03-02T18:08:18;26.50;;;13.77;;
19396;SDS011;9834;48.076;11.878;2024-03-02T18:10:48;24.33;;;13.93;;
19396;SDS011;9834;48.076;11.878;2024-03-02T18:13:22;28.33;;;17.33;;
19396;SDS011;9834;48.076;11.878;2024-03-02T18:16:00;25.47;;;14.47;;
19396;SDS011;9834;48.076;11.878;2024-03-02T18:18:31;25.13;;;13.97;;
19396;SDS011;9834;48.076;11.878;2024-03-02T18:21:03;34.20;;;16.43;;
19396;SDS011;9834;48.076;11.878;2024-03-02T18:23:34;30.17;;;14.50;;
19396;SDS011;9834;48.076;11.878;2024-03-02T18:26:07;32.00;;;15.10;;
19396;SDS011;9834;48.076;11.878;2024-03-02T18:28:35;25.50;;;12.97;;
19396;SDS011;9834;48.076;11.878;2024-03-02T18:31:12;26.10;;;14.87;;
19396;SDS011;9834;48.076;11.878;2024-03-02T18:33:47;25.23;;;13.10;;
19396;SDS011;9834;48.076;11.878;2024-03-02T18:36:15;38.87;;;16.30;;
19396;SDS011;9834;48.076;11.878;2024-03-02T18:38:42;29.07;;;15.10;;
19396;SDS011;9834;48.076;11.878;2024-03-02T18:41:10;31.73;;;16.10;;
19396;SDS011;9834;48.076;11.878;2024-03-02T18:43:38;29.37;;;15.00;;
19396;SDS011;9834;48.076;11.878;2024-03-02T18:46:13;27.57;;;15.27;;
19396;SDS011;9834;48.076;11.878;2024-03-02T18:48:47;28.50;;;15.10;;
19396;SDS011;9834;48.076;11.878;2024-03-02T18:51:20;29.63;;;15.23;;
19396;SDS011;9834;48.076;11.878;2024-03-02T18:53:48;33.27;;;14.90;;
19396;SDS011;9834;48.076;11.878;2024-03-02T18:56:18;32.53;;;14.87;;
19396;SDS011;9834;48.076;11.878;2024-03-02T18:58:46;29.00;;;15.37;;
19396;SDS011;9834;48.076;11.878;2024-03-02T19:01:21;30.60;;;14.17;;